sensor_id;sensor_type;location;lat;lon;timestamp;pressure;altitude;pressure_sealevel;temperature;humidity
40372;BME280;28564;53.346;-6.554;2023-01-28T00:02:25;102541.50;;;6.60;44.91
40372;BME280;28564;53.346;-6.554;2023-01-28T00:04:53;102538.77;;;6.82;44.90
40372;BME280;28564;53.346;-6.554;2023-01-28T00:07:26;102529.84;;;6.80;44.84
40372;BME280;28564;53.346;-6.554;2023-01-28T00:09:53;102521.29;;;6.75;44.86
40372;BME280;28564;53.346;-6.554;2023-01-28T00:12:21;102517.62;;;6.68;44.81
40372;BME280;28564;53.346;-6.554;2023-01-28T00:14:48;102519.19;;;6.60;44.89
40372;BME280;28564;53.346;-6.554;2023-01-28T00:17:15;102511.01;;;6.53;44.97
40372;BME280;28564;53.346;-6.554;2023-01-28T00:19:42;102524.41;;;6.47;45.01
40372;BME280;28564;53.346;-6.554;2023-01-28T00:22:10;102529.46;;;6.40;45.11
40372;BME280;28564;53.346;-6.554;2023-01-28T00:24:38;102529.96;;;6.37;45.28
40372;BME280;28564;53.346;-6.554;2023-01-28T00:27:05;102532.70;;;6.39;45.30
40372;BME280;28564;53.346;-6.554;2023-01-28T00:29:33;102542.78;;;6.42;45.41
40372;BME280;28564;53.346;-6.554;2023-01-28T00:32:00;102538.22;;;6.49;45.40
40372;BME280;28564;53.346;-6.554;2023-01-28T00:34:27;102540.94;;;6.57;45.37
40372;BME280;28564;53.346;-6.554;2023-01-28T00:36:55;102534.55;;;6.15;45.29
40372;BME280;28564;53.346;-6.554;2023-01-28T00:39:23;102529.39;;;6.66;45.35
40372;BME280;28564;53.346;-6.554;2023-01-28T00:41:50;102527.18;;;6.69;45.37
40372;BME280;28564;53.346;-6.554;2023-01-28T00:44:18;102531.65;;;6.75;45.33
40372;BME280;28564;53.346;-6.554;2023-01-28T00:46:46;102529.30;;;6.56;45.36
40372;BME280;28564;53.346;-6.554;2023-01-28T00:49:14;102528.10;;;6.84;45.30
40372;BME280;28564;53.346;-6.554;2023-01-28T00:51:41;102521.16;;;6.90;45.26
40372;BME280;28564;53.346;-6.554;2023-01-28T00:54:11;102518.59;;;6.94;45.16
40372;BME280;28564;53.346;-6.554;2023-01-28T00:56:39;102515.42;;;6.51;45.10
40372;BME280;28564;53.346;-6.554;2023-01-28T00:59:06;102510.92;;;7.06;45.02
40372;BME280;28564;53.346;-6.554;2023-01-28T01:01:34;102501.14;;;6.86;45.03
40372;BME280;28564;53.346;-6.554;2023-01-28T01:04:01;102495.91;;;7.11;45.01
40372;BME280;28564;53.346;-6.554;2023-01-28T01:06:30;102498.81;;;6.92;45.05
40372;BME280;28564;53.346;-6.554;2023-01-28T01:08:58;102498.57;;;6.96;45.00
40372;BME280;28564;53.346;-6.554;2023-01-28T01:11:26;102489.13;;;6.75;45.01
40372;BME280;28564;53.346;-6.554;2023-01-28T01:13:54;102490.87;;;7.04;44.96
40372;BME280;28564;53.346;-6.554;2023-01-28T01:16:23;102492.54;;;7.29;44.99
40372;BME280;28564;53.346;-6.554;2023-01-28T01:18:52;102493.10;;;6.86;45.01
40372;BME280;28564;53.346;-6.554;2023-01-28T01:21:22;102491.72;;;7.19;44.98
40372;BME280;28564;53.346;-6.554;2023-01-28T01:23:51;102484.97;;;6.99;44.88
40372;BME280;28564;53.346;-6.554;2023-01-28T01:26:18;102484.54;;;7.53;44.87
40372;BME280;28564;53.346;-6.554;2023-01-28T01:28:46;102481.90;;;7.08;44.70
40372;BME280;28564;53.346;-6.554;2023-01-28T01:31:15;102484.54;;;7.37;44.76
40372;BME280;28564;53.346;-6.554;2023-01-28T01:33:43;102487.18;;;7.15;44.72
40372;BME280;28564;53.346;-6.554;2023-01-28T01:36:11;102490.39;;;7.19;44.58
40372;BME280;28564;53.346;-6.554;2023-01-28T01:38:40;102484.14;;;7.47;44.46
40372;BME280;28564;53.346;-6.554;2023-01-28T01:41:07;102472.93;;;7.14;44.43
40372;BME280;28564;53.346;-6.554;2023-01-28T01:43:49;102470.83;;;7.56;44.67
40372;BME280;28564;53.346;-6.554;2023-01-28T01:46:21;102472.58;;;7.06;44.75
40372;BME280;28564;53.346;-6.554;2023-01-28T01:48:50;102473.06;;;7.53;44.76
40372;BME280;28564;53.346;-6.554;2023-01-28T01:51:21;102472.09;;;7.06;44.81
40372;BME280;28564;53.346;-6.554;2023-01-28T01:53:52;102467.88;;;7.10;44.84
40372;BME280;28564;53.346;-6.554;2023-01-28T01:56:23;102468.33;;;7.43;44.92
40372;BME280;28564;53.346;-6.554;2023-01-28T01:58:55;102470.44;;;7.46;44.82
40372;BME280;28564;53.346;-6.554;2023-01-28T02:01:28;102471.38;;;7.20;44.91
40372;BME280;28564;53.346;-6.554;2023-01-28T02:04:03;102473.12;;;7.22;45.03
40372;BME280;28564;53.346;-6.554;2023-01-28T02:06:32;102480.74;;;7.26;45.19
40372;BME280;28564;53.346;-6.554;2023-01-28T02:09:00;102487.64;;;7.27;45.30
40372;BME280;28564;53.346;-6.554;2023-01-28T02:11:29;102498.66;;;7.27;45.42
40372;BME280;28564;53.346;-6.554;2023-01-28T02:14:01;102503.01;;;7.21;45.73
40372;BME280;28564;53.346;-6.554;2023-01-28T02:16:30;102508.38;;;7.66;46.13
40372;BME280;28564;53.346;-6.554;2023-01-28T02:18:58;102510.99;;;7.14;46.36
40372;BME280;28564;53.346;-6.554;2023-01-28T02:22:05;102505.92;;;7.14;46.67
40372;BME280;28564;53.346;-6.554;2023-01-28T02:24:58;102500.75;;;7.10;46.93
40372;BME280;28564;53.346;-6.554;2023-01-28T02:27:36;102500.61;;;7.12;47.13
40372;BME280;28564;53.346;-6.554;2023-01-28T02:30:09;102501.07;;;7.14;47.21
40372;BME280;28564;53.346;-6.554;2023-01-28T02:32:43;102505.34;;;7.19;47.23
40372;BME280;28564;53.346;-6.554;2023-01-28T02:35:17;102506.96;;;7.21;47.27
40372;BME280;28564;53.346;-6.554;2023-01-28T02:37:53;102505.32;;;7.25;47.27
40372;BME280;28564;53.346;-6.554;2023-01-28T02:40:26;102507.59;;;7.26;47.28
40372;BME280;28564;53.346;-6.554;2023-01-28T02:42:54;102508.46;;;7.24;47.27
40372;BME280;28564;53.346;-6.554;2023-01-28T02:45:24;102506.63;;;7.21;47.44
40372;BME280;28564;53.346;-6.554;2023-01-28T02:47:52;102498.03;;;7.00;47.44
40372;BME280;28564;53.346;-6.554;2023-01-28T02:50:20;102484.10;;;7.28;47.44
40372;BME280;28564;53.346;-6.554;2023-01-28T02:52:55;102474.78;;;7.29;47.48
40372;BME280;28564;53.346;-6.554;2023-01-28T02:55:34;102469.55;;;7.32;47.55
40372;BME280;28564;53.346;-6.554;2023-01-28T02:58:09;102468.11;;;7.31;47.66
40372;BME280;28564;53.346;-6.554;2023-01-28T03:00:45;102468.50;;;7.28;47.84
40372;BME280;28564;53.346;-6.554;2023-01-28T03:03:21;102461.26;;;7.28;47.97
40372;BME280;28564;53.346;-6.554;2023-01-28T03:05:54;102458.75;;;7.74;48.30
40372;BME280;28564;53.346;-6.554;2023-01-28T03:08:24;102453.47;;;7.21;48.53
40372;BME280;28564;53.346;-6.554;2023-01-28T03:10:52;102450.68;;;7.15;48.78
40372;BME280;28564;53.346;-6.554;2023-01-28T03:13:21;102453.16;;;7.14;49.08
40372;BME280;28564;53.346;-6.554;2023-01-28T03:15:49;102456.08;;;7.13;49.32
40372;BME280;28564;53.346;-6.554;2023-01-28T03:18:19;102453.37;;;7.15;49.46
40372;BME280;28564;53.346;-6.554;2023-01-28T03:20:53;102449.61;;;7.16;49.61
40372;BME280;28564;53.346;-6.554;2023-01-28T03:23:28;102448.49;;;7.07;49.74
40372;BME280;28564;53.346;-6.554;2023-01-28T03:26:00;102447.65;;;7.28;49.98
40372;BME280;28564;53.346;-6.554;2023-01-28T03:28:29;102452.32;;;7.29;50.18
40372;BME280;28564;53.346;-6.554;2023-01-28T03:31:03;102456.94;;;7.05;50.36
40372;BME280;28564;53.346;-6.554;2023-01-28T03:33:33;102465.55;;;7.37;50.48
40372;BME280;28564;53.346;-6.554;2023-01-28T03:36:02;102475.70;;;7.33;50.75
40372;BME280;28564;53.346;-6.554;2023-01-28T03:38:30;102478.74;;;7.04;50.94
40372;BME280;28564;53.346;-6.554;2023-01-28T03:40:59;102469.68;;;7.00;51.12
40372;BME280;28564;53.346;-6.554;2023-01-28T03:43:28;102460.91;;;7.02;51.14
40372;BME280;28564;53.346;-6.554;2023-01-28T03:45:55;102452.00;;;7.34;51.08
40372;BME280;28564;53.346;-6.554;2023-01-28T03:48:24;102457.90;;;7.34;51.09
40372;BME280;28564;53.346;-6.554;2023-01-28T03:50:53;102459.95;;;7.32;51.21
40372;BME280;28564;53.346;-6.554;2023-01-28T03:53:21;102458.38;;;7.09;51.28
40372;BME280;28564;53.346;-6.554;2023-01-28T03:55:51;102455.79;;;7.10;51.21
40372;BME280;28564;53.346;-6.554;2023-01-28T03:58:20;102456.26;;;7.12;51.30
40372;BME280;28564;53.346;-6.554;2023-01-28T04:00:47;102457.67;;;7.44;51.30
40372;BME280;28564;53.346;-6.554;2023-01-28T04:03:16;102462.41;;;7.23;51.24
40372;BME280;28564;53.346;-6.554;2023-01-28T04:05:44;102467.21;;;7.22;51.32
40372;BME280;28564;53.346;-6.554;2023-01-28T04:08:13;102466.89;;;7.28;51.32
40372;BME280;28564;53.346;-6.554;2023-01-28T04:10:40;102465.34;;;7.33;51.24
40372;BME280;28564;53.346;-6.554;2023-01-28T04:13:07;102466.06;;;7.33;51.06
40372;BME280;28564;53.346;-6.554;2023-01-28T04:15:34;102465.39;;;7.31;50.89
40372;BME280;28564;53.346;-6.554;2023-01-28T04:18:02;102465.41;;;7.26;50.99
40372;BME280;28564;53.346;-6.554;2023-01-28T04:20:29;102459.79;;;7.17;51.32
40372;BME280;28564;53.346;-6.554;2023-01-28T04:22:57;102456.06;;;7.43;51.35
40372;BME280;28564;53.346;-6.554;2023-01-28T04:25:25;102454.92;;;7.15;51.28
40372;BME280;28564;53.346;-6.554;2023-01-28T04:27:52;102450.86;;;7.15;51.39
40372;BME280;28564;53.346;-6.554;2023-01-28T04:30:19;102445.09;;;7.34;51.69
40372;BME280;28564;53.346;-6.554;2023-01-28T04:32:46;102446.01;;;7.06;51.66
40372;BME280;28564;53.346;-6.554;2023-01-28T04:35:14;102448.25;;;7.29;51.78
40372;BME280;28564;53.346;-6.554;2023-01-28T04:37:41;102450.68;;;7.03;51.75
40372;BME280;28564;53.346;-6.554;2023-01-28T04:40:10;102457.63;;;7.04;51.85
40372;BME280;28564;53.346;-6.554;2023-01-28T04:42:38;102463.41;;;7.08;51.98
40372;BME280;28564;53.346;-6.554;2023-01-28T04:45:07;102470.02;;;7.15;51.91
40372;BME280;28564;53.346;-6.554;2023-01-28T04:47:35;102468.92;;;7.20;51.92
40372;BME280;28564;53.346;-6.554;2023-01-28T04:50:02;102471.35;;;7.27;51.64
40372;BME280;28564;53.346;-6.554;2023-01-28T04:52:29;102476.24;;;7.31;51.64
40372;BME280;28564;53.346;-6.554;2023-01-28T04:54:57;102479.57;;;7.32;51.71
40372;BME280;28564;53.346;-6.554;2023-01-28T04:57:24;102483.46;;;7.35;51.55
40372;BME280;28564;53.346;-6.554;2023-01-28T04:59:51;102479.07;;;7.32;51.61
40372;BME280;28564;53.346;-6.554;2023-01-28T05:02:19;102481.96;;;7.32;51.59
40372;BME280;28564;53.346;-6.554;2023-01-28T05:04:46;102488.56;;;7.31;51.65
40372;BME280;28564;53.346;-6.554;2023-01-28T05:07:13;102492.32;;;7.30;51.81
40372;BME280;28564;53.346;-6.554;2023-01-28T05:09:41;102488.03;;;7.29;51.82
40372;BME280;28564;53.346;-6.554;2023-01-28T05:12:08;102485.77;;;7.28;51.90
40372;BME280;28564;53.346;-6.554;2023-01-28T05:14:35;102489.97;;;7.57;51.88
40372;BME280;28564;53.346;-6.554;2023-01-28T05:17:03;102496.68;;;7.26;52.12
40372;BME280;28564;53.346;-6.554;2023-01-28T05:19:30;102501.83;;;7.77;52.24
40372;BME280;28564;53.346;-6.554;2023-01-28T05:21:57;102504.55;;;7.25;52.39
40372;BME280;28564;53.346;-6.554;2023-01-28T05:24:25;102508.70;;;7.53;52.42
40372;BME280;28564;53.346;-6.554;2023-01-28T05:26:52;102508.10;;;7.23;52.57
40372;BME280;28564;53.346;-6.554;2023-01-28T05:29:19;102507.05;;;7.68;52.72
40372;BME280;28564;53.346;-6.554;2023-01-28T05:31:47;102508.87;;;7.14;52.96
40372;BME280;28564;53.346;-6.554;2023-01-28T05:34:14;102507.13;;;7.15;53.11
40372;BME280;28564;53.346;-6.554;2023-01-28T05:36:41;102501.10;;;7.36;53.37
40372;BME280;28564;53.346;-6.554;2023-01-28T05:39:09;102498.32;;;7.09;53.41
40372;BME280;28564;53.346;-6.554;2023-01-28T05:41:36;102498.48;;;7.09;53.54
40372;BME280;28564;53.346;-6.554;2023-01-28T05:44:04;102503.78;;;7.55;53.70
40372;BME280;28564;53.346;-6.554;2023-01-28T05:46:31;102507.14;;;7.38;53.72
40372;BME280;28564;53.346;-6.554;2023-01-28T05:48:58;102502.22;;;7.06;54.00
40372;BME280;28564;53.346;-6.554;2023-01-28T05:51:26;102503.54;;;7.07;53.88
40372;BME280;28564;53.346;-6.554;2023-01-28T05:53:53;102504.77;;;7.07;53.94
40372;BME280;28564;53.346;-6.554;2023-01-28T05:56:20;102499.30;;;7.53;54.13
40372;BME280;28564;53.346;-6.554;2023-01-28T05:58:48;102491.85;;;7.00;54.31
40372;BME280;28564;53.346;-6.554;2023-01-28T06:01:15;102487.39;;;7.00;54.46
40372;BME280;28564;53.346;-6.554;2023-01-28T06:03:42;102491.04;;;7.02;54.48
40372;BME280;28564;53.346;-6.554;2023-01-28T06:06:10;102490.08;;;7.32;54.32
40372;BME280;28564;53.346;-6.554;2023-01-28T06:08:37;102485.04;;;7.07;54.45
40372;BME280;28564;53.346;-6.554;2023-01-28T06:11:04;102489.08;;;7.12;54.21
40372;BME280;28564;53.346;-6.554;2023-01-28T06:13:32;102490.13;;;7.09;54.19
40372;BME280;28564;53.346;-6.554;2023-01-28T06:15:59;102489.95;;;7.04;54.51
40372;BME280;28564;53.346;-6.554;2023-01-28T06:18:26;102487.70;;;7.11;54.53
40372;BME280;28564;53.346;-6.554;2023-01-28T06:20:53;102486.62;;;7.12;54.43
40372;BME280;28564;53.346;-6.554;2023-01-28T06:23:21;102489.52;;;7.45;54.21
40372;BME280;28564;53.346;-6.554;2023-01-28T06:25:52;102495.19;;;7.19;54.26
40372;BME280;28564;53.346;-6.554;2023-01-28T06:28:20;102491.49;;;7.44;54.43
40372;BME280;28564;53.346;-6.554;2023-01-28T06:30:47;102487.06;;;7.13;54.82
40372;BME280;28564;53.346;-6.554;2023-01-28T06:33:14;102484.85;;;7.17;54.76
40372;BME280;28564;53.346;-6.554;2023-01-28T06:35:41;102487.82;;;7.23;54.79
40372;BME280;28564;53.346;-6.554;2023-01-28T06:38:09;102490.10;;;7.32;54.53
40372;BME280;28564;53.346;-6.554;2023-01-28T06:40:36;102487.93;;;7.59;54.50
40372;BME280;28564;53.346;-6.554;2023-01-28T06:43:03;102488.65;;;7.32;54.47
40372;BME280;28564;53.346;-6.554;2023-01-28T06:45:31;102488.59;;;7.26;54.69
40372;BME280;28564;53.346;-6.554;2023-01-28T06:47:58;102489.18;;;7.28;54.85
40372;BME280;28564;53.346;-6.554;2023-01-28T06:50:26;102486.29;;;7.73;54.98
40372;BME280;28564;53.346;-6.554;2023-01-28T06:52:53;102487.35;;;7.48;55.28
40372;BME280;28564;53.346;-6.554;2023-01-28T06:55:20;102485.71;;;7.19;55.31
40372;BME280;28564;53.346;-6.554;2023-01-28T06:57:48;102480.10;;;7.42;55.58
40372;BME280;28564;53.346;-6.554;2023-01-28T07:00:16;102472.89;;;7.20;55.47
40372;BME280;28564;53.346;-6.554;2023-01-28T07:02:43;102476.30;;;7.22;55.46
40372;BME280;28564;53.346;-6.554;2023-01-28T07:05:11;102480.06;;;7.26;55.38
40372;BME280;28564;53.346;-6.554;2023-01-28T07:07:43;102482.68;;;7.33;55.39
40372;BME280;28564;53.346;-6.554;2023-01-28T07:10:10;102481.14;;;7.34;55.31
40372;BME280;28564;53.346;-6.554;2023-01-28T07:12:38;102477.08;;;7.34;55.30
40372;BME280;28564;53.346;-6.554;2023-01-28T07:15:06;102481.77;;;7.36;55.43
40372;BME280;28564;53.346;-6.554;2023-01-28T07:17:33;102484.53;;;7.41;55.25
40372;BME280;28564;53.346;-6.554;2023-01-28T07:20:00;102482.32;;;7.37;55.60
40372;BME280;28564;53.346;-6.554;2023-01-28T07:22:27;102478.78;;;7.41;55.54
40372;BME280;28564;53.346;-6.554;2023-01-28T07:24:54;102476.94;;;7.45;55.41
40372;BME280;28564;53.346;-6.554;2023-01-28T07:27:22;102477.03;;;7.51;55.21
40372;BME280;28564;53.346;-6.554;2023-01-28T07:29:49;102477.17;;;7.53;55.25
40372;BME280;28564;53.346;-6.554;2023-01-28T07:32:16;102470.71;;;7.53;55.41
40372;BME280;28564;53.346;-6.554;2023-01-28T07:34:44;102468.32;;;7.55;55.37
40372;BME280;28564;53.346;-6.554;2023-01-28T07:37:11;102468.03;;;7.62;55.49
40372;BME280;28564;53.346;-6.554;2023-01-28T07:39:38;102464.82;;;7.69;55.18
40372;BME280;28564;53.346;-6.554;2023-01-28T07:42:05;102468.21;;;7.72;55.24
40372;BME280;28564;53.346;-6.554;2023-01-28T07:44:33;102466.89;;;7.77;55.06
40372;BME280;28564;53.346;-6.554;2023-01-28T07:47:00;102469.55;;;7.78;54.90
40372;BME280;28564;53.346;-6.554;2023-01-28T07:49:27;102470.17;;;7.78;54.82
40372;BME280;28564;53.346;-6.554;2023-01-28T07:51:55;102467.85;;;7.76;54.99
40372;BME280;28564;53.346;-6.554;2023-01-28T07:54:22;102473.22;;;7.78;54.99
40372;BME280;28564;53.346;-6.554;2023-01-28T07:56:49;102475.71;;;7.76;54.96
40372;BME280;28564;53.346;-6.554;2023-01-28T07:59:17;102481.58;;;7.75;55.02
40372;BME280;28564;53.346;-6.554;2023-01-28T08:01:44;102484.11;;;7.52;55.23
40372;BME280;28564;53.346;-6.554;2023-01-28T08:04:11;102485.52;;;7.79;55.18
40372;BME280;28564;53.346;-6.554;2023-01-28T08:06:39;102487.61;;;7.78;55.22
40372;BME280;28564;53.346;-6.554;2023-01-28T08:09:06;102490.27;;;7.81;55.21
40372;BME280;28564;53.346;-6.554;2023-01-28T08:11:37;102494.46;;;7.81;55.11
40372;BME280;28564;53.346;-6.554;2023-01-28T08:14:05;102495.20;;;7.78;55.27
40372;BME280;28564;53.346;-6.554;2023-01-28T08:16:32;102496.74;;;7.73;55.58
40372;BME280;28564;53.346;-6.554;2023-01-28T08:19:00;102498.27;;;7.72;55.80
40372;BME280;28564;53.346;-6.554;2023-01-28T08:21:27;102502.16;;;7.53;55.74
40372;BME280;28564;53.346;-6.554;2023-01-28T08:23:54;102503.09;;;7.76;55.85
40372;BME280;28564;53.346;-6.554;2023-01-28T08:26:21;102506.84;;;7.81;55.86
40372;BME280;28564;53.346;-6.554;2023-01-28T08:28:49;102505.75;;;7.61;55.93
40372;BME280;28564;53.346;-6.554;2023-01-28T08:31:16;102510.40;;;7.85;56.05
40372;BME280;28564;53.346;-6.554;2023-01-28T08:33:43;102510.21;;;7.91;55.99
40372;BME280;28564;53.346;-6.554;2023-01-28T08:36:11;102507.26;;;7.94;56.24
40372;BME280;28564;53.346;-6.554;2023-01-28T08:38:38;102508.67;;;7.99;56.16
40372;BME280;28564;53.346;-6.554;2023-01-28T08:41:06;102507.68;;;8.07;56.09
40372;BME280;28564;53.346;-6.554;2023-01-28T08:43:33;102508.39;;;8.16;55.91
40372;BME280;28564;53.346;-6.554;2023-01-28T08:46:00;102509.31;;;8.23;55.74
40372;BME280;28564;53.346;-6.554;2023-01-28T08:48:27;102509.45;;;8.07;55.77
40372;BME280;28564;53.346;-6.554;2023-01-28T08:50:57;102509.51;;;8.15;55.72
40372;BME280;28564;53.346;-6.554;2023-01-28T08:53:25;102506.06;;;8.25;55.62
40372;BME280;28564;53.346;-6.554;2023-01-28T08:55:53;102504.45;;;8.31;55.48
40372;BME280;28564;53.346;-6.554;2023-01-28T08:58:20;102507.75;;;8.61;55.50
40372;BME280;28564;53.346;-6.554;2023-01-28T09:00:48;102509.45;;;8.48;55.62
40372;BME280;28564;53.346;-6.554;2023-01-28T09:03:16;102513.00;;;8.76;55.60
40372;BME280;28564;53.346;-6.554;2023-01-28T09:05:44;102508.96;;;8.40;55.53
40372;BME280;28564;53.346;-6.554;2023-01-28T09:08:13;102508.58;;;8.19;55.31
40372;BME280;28564;53.346;-6.554;2023-01-28T09:10:41;102505.70;;;8.47;55.31
40372;BME280;28564;53.346;-6.554;2023-01-28T09:13:11;102508.95;;;8.46;55.21
40372;BME280;28564;53.346;-6.554;2023-01-28T09:15:39;102508.93;;;8.47;55.17
40372;BME280;28564;53.346;-6.554;2023-01-28T09:18:06;102509.99;;;8.69;55.25
40372;BME280;28564;53.346;-6.554;2023-01-28T09:20:33;102511.77;;;8.45;55.45
40372;BME280;28564;53.346;-6.554;2023-01-28T09:23:01;102513.61;;;8.70;55.59
40372;BME280;28564;53.346;-6.554;2023-01-28T09:25:29;102514.53;;;8.74;55.42
40372;BME280;28564;53.346;-6.554;2023-01-28T09:27:56;102509.37;;;8.52;55.48
40372;BME280;28564;53.346;-6.554;2023-01-28T09:30:24;102509.55;;;8.55;55.60
40372;BME280;28564;53.346;-6.554;2023-01-28T09:32:51;102508.76;;;8.80;55.67
40372;BME280;28564;53.346;-6.554;2023-01-28T09:35:19;102508.34;;;8.61;55.57
40372;BME280;28564;53.346;-6.554;2023-01-28T09:37:47;102507.50;;;8.66;55.80
40372;BME280;28564;53.346;-6.554;2023-01-28T09:40:17;102508.81;;;8.71;55.69
40372;BME280;28564;53.346;-6.554;2023-01-28T09:42:58;102507.78;;;8.79;55.73
40372;BME280;28564;53.346;-6.554;2023-01-28T09:45:32;102505.35;;;8.88;55.60
40372;BME280;28564;53.346;-6.554;2023-01-28T09:48:04;102499.81;;;9.18;55.48
40372;BME280;28564;53.346;-6.554;2023-01-28T09:50:35;102501.84;;;9.00;55.66
40372;BME280;28564;53.346;-6.554;2023-01-28T09:53:06;102510.52;;;9.11;55.80
40372;BME280;28564;53.346;-6.554;2023-01-28T09:55:40;102522.74;;;9.19;55.43
40372;BME280;28564;53.346;-6.554;2023-01-28T09:58:11;102523.29;;;9.00;55.03
40372;BME280;28564;53.346;-6.554;2023-01-28T10:00:44;102527.18;;;9.23;55.17
40372;BME280;28564;53.346;-6.554;2023-01-28T10:03:26;102528.91;;;9.40;55.15
40372;BME280;28564;53.346;-6.554;2023-01-28T10:06:05;102537.03;;;9.07;55.42
40372;BME280;28564;53.346;-6.554;2023-01-28T10:08:45;102540.69;;;8.99;55.66
40372;BME280;28564;53.346;-6.554;2023-01-28T10:11:37;102541.33;;;9.00;55.76
40372;BME280;28564;53.346;-6.554;2023-01-28T10:14:12;102544.31;;;9.01;55.63
40372;BME280;28564;53.346;-6.554;2023-01-28T10:16:47;102543.96;;;9.02;55.79
40372;BME280;28564;53.346;-6.554;2023-01-28T10:19:20;102544.57;;;8.54;56.10
40372;BME280;28564;53.346;-6.554;2023-01-28T10:21:54;102549.01;;;9.14;56.09
40372;BME280;28564;53.346;-6.554;2023-01-28T10:24:30;102547.62;;;9.21;55.87
40372;BME280;28564;53.346;-6.554;2023-01-28T10:27:00;102545.63;;;9.25;55.77
40372;BME280;28564;53.346;-6.554;2023-01-28T10:29:30;102546.08;;;9.05;55.48
40372;BME280;28564;53.346;-6.554;2023-01-28T10:32:03;102547.76;;;9.37;55.40
40372;BME280;28564;53.346;-6.554;2023-01-28T10:34:31;102555.00;;;9.35;55.41
40372;BME280;28564;53.346;-6.554;2023-01-28T10:36:59;102556.26;;;9.36;55.67
40372;BME280;28564;53.346;-6.554;2023-01-28T10:39:27;102552.80;;;9.17;55.93
40372;BME280;28564;53.346;-6.554;2023-01-28T10:41:56;102557.77;;;9.56;55.55
40372;BME280;28564;53.346;-6.554;2023-01-28T10:44:30;102562.94;;;9.38;55.43
40372;BME280;28564;53.346;-6.554;2023-01-28T10:47:02;102561.39;;;9.19;55.42
40372;BME280;28564;53.346;-6.554;2023-01-28T10:49:31;102551.31;;;9.25;55.55
40372;BME280;28564;53.346;-6.554;2023-01-28T10:52:10;102545.28;;;9.32;55.23
40372;BME280;28564;53.346;-6.554;2023-01-28T10:54:38;102544.78;;;9.14;55.47
40372;BME280;28564;53.346;-6.554;2023-01-28T10:57:10;102540.06;;;9.93;55.29
40372;BME280;28564;53.346;-6.554;2023-01-28T10:59:38;102536.92;;;9.58;54.99
40372;BME280;28564;53.346;-6.554;2023-01-28T11:02:23;102535.55;;;9.64;55.20
40372;BME280;28564;53.346;-6.554;2023-01-28T11:05:03;102536.38;;;9.80;55.25
40372;BME280;28564;53.346;-6.554;2023-01-28T11:07:31;102530.48;;;9.97;55.03
40372;BME280;28564;53.346;-6.554;2023-01-28T11:09:59;102523.91;;;10.11;54.86
40372;BME280;28564;53.346;-6.554;2023-01-28T11:12:28;102519.89;;;10.01;54.75
40372;BME280;28564;53.346;-6.554;2023-01-28T11:14:56;102518.45;;;10.22;54.19
40372;BME280;28564;53.346;-6.554;2023-01-28T11:17:26;102512.97;;;10.30;54.20
40372;BME280;28564;53.346;-6.554;2023-01-28T11:19:57;102509.03;;;10.35;54.07
40372;BME280;28564;53.346;-6.554;2023-01-28T11:22:30;102506.80;;;10.37;54.02
40372;BME280;28564;53.346;-6.554;2023-01-28T11:24:59;102503.75;;;10.66;53.76
40372;BME280;28564;53.346;-6.554;2023-01-28T11:27:29;102507.72;;;10.42;53.43
40372;BME280;28564;53.346;-6.554;2023-01-28T11:29:59;102506.57;;;10.63;53.41
40372;BME280;28564;53.346;-6.554;2023-01-28T11:32:32;102506.40;;;10.29;53.84
40372;BME280;28564;53.346;-6.554;2023-01-28T11:34:59;102504.23;;;10.53;53.79
40372;BME280;28564;53.346;-6.554;2023-01-28T11:37:28;102508.91;;;10.18;53.59
40372;BME280;28564;53.346;-6.554;2023-01-28T11:40:13;102509.43;;;10.42;53.85
40372;BME280;28564;53.346;-6.554;2023-01-28T11:42:41;102507.26;;;10.57;54.23
40372;BME280;28564;53.346;-6.554;2023-01-28T11:45:15;102508.69;;;10.66;53.91
40372;BME280;28564;53.346;-6.554;2023-01-28T11:47:52;102509.08;;;10.35;53.97
40372;BME280;28564;53.346;-6.554;2023-01-28T11:50:31;102509.38;;;10.36;53.78
40372;BME280;28564;53.346;-6.554;2023-01-28T11:53:16;102508.83;;;10.28;53.77
40372;BME280;28564;53.346;-6.554;2023-01-28T11:55:59;102506.37;;;10.37;53.96
40372;BME280;28564;53.346;-6.554;2023-01-28T11:58:36;102500.46;;;10.30;54.03
40372;BME280;28564;53.346;-6.554;2023-01-28T12:01:11;102501.92;;;10.24;54.20
40372;BME280;28564;53.346;-6.554;2023-01-28T12:04:18;102497.14;;;10.14;54.81
40372;BME280;28564;53.346;-6.554;2023-01-28T12:06:56;102496.21;;;10.20;54.74
40372;BME280;28564;53.346;-6.554;2023-01-28T12:09:33;102488.14;;;10.20;54.58
40372;BME280;28564;53.346;-6.554;2023-01-28T12:12:13;102484.27;;;10.27;54.83
40372;BME280;28564;53.346;-6.554;2023-01-28T12:14:58;102483.88;;;10.35;55.03
40372;BME280;28564;53.346;-6.554;2023-01-28T12:17:40;102477.78;;;10.39;54.64
40372;BME280;28564;53.346;-6.554;2023-01-28T12:20:18;102471.87;;;10.34;54.80
40372;BME280;28564;53.346;-6.554;2023-01-28T12:23:14;102464.44;;;10.32;55.20
40372;BME280;28564;53.346;-6.554;2023-01-28T12:26:00;102458.40;;;10.48;54.69
40372;BME280;28564;53.346;-6.554;2023-01-28T12:28:39;102459.24;;;10.66;55.21
40372;BME280;28564;53.346;-6.554;2023-01-28T12:31:29;102457.61;;;10.72;54.61
40372;BME280;28564;53.346;-6.554;2023-01-28T12:34:14;102457.34;;;10.78;53.63
40372;BME280;28564;53.346;-6.554;2023-01-28T12:36:52;102449.84;;;10.60;54.01
40372;BME280;28564;53.346;-6.554;2023-01-28T12:39:34;102447.79;;;10.47;54.25
40372;BME280;28564;53.346;-6.554;2023-01-28T12:42:11;102448.95;;;10.47;54.09
40372;BME280;28564;53.346;-6.554;2023-01-28T12:44:44;102448.10;;;10.48;54.27
40372;BME280;28564;53.346;-6.554;2023-01-28T12:47:18;102442.57;;;10.61;54.11
40372;BME280;28564;53.346;-6.554;2023-01-28T12:49:49;102439.75;;;10.35;53.96
40372;BME280;28564;53.346;-6.554;2023-01-28T12:52:34;102436.89;;;10.81;53.10
40372;BME280;28564;53.346;-6.554;2023-01-28T12:55:06;102430.21;;;10.89;53.08
40372;BME280;28564;53.346;-6.554;2023-01-28T12:57:40;102428.84;;;10.82;52.77
40372;BME280;28564;53.346;-6.554;2023-01-28T13:00:20;102427.79;;;10.72;52.56
40372;BME280;28564;53.346;-6.554;2023-01-28T13:02:55;102432.26;;;10.83;52.66
40372;BME280;28564;53.346;-6.554;2023-01-28T13:05:30;102433.77;;;10.71;52.83